createdAt,value
2018-09-29T00:01:18.350Z,11.15
2018-09-29T00:03:46.621Z,10.50
2018-09-29T00:06:14.657Z,9.18
2018-09-29T00:08:42.693Z,10.40
2018-09-29T00:11:10.761Z,10.13
2018-09-29T00:13:38.822Z,10.40
2018-09-29T00:16:07.289Z,9.35
2018-09-29T00:18:35.334Z,16.17
2018-09-29T00:21:03.376Z,12.85
2018-09-29T00:23:31.393Z,11.12
2018-09-29T00:25:59.418Z,15.30
2018-09-29T00:28:27.450Z,12.55
2018-09-29T00:30:55.511Z,8.73
2018-09-29T00:33:23.566Z,12.07
2018-09-29T00:35:51.603Z,12.67
2018-09-29T00:38:19.703Z,13.38
2018-09-29T00:40:47.735Z,12.90
2018-09-29T00:43:15.766Z,10.32
2018-09-29T00:45:43.833Z,13.80
2018-09-29T00:48:11.849Z,10.72
2018-09-29T00:50:39.894Z,10.63
2018-09-29T00:53:07.940Z,13.20
2018-09-29T00:55:36.112Z,11.20
2018-09-29T00:58:04.150Z,10.10
2018-09-29T01:00:32.184Z,11.73
2018-09-29T01:03:00.241Z,12.68
2018-09-29T01:05:28.265Z,8.13
2018-09-29T01:07:56.314Z,11.18
2018-09-29T01:10:24.345Z,11.65
2018-09-29T01:12:52.409Z,13.05
2018-09-29T01:15:20.459Z,10.88
2018-09-29T01:17:48.505Z,13.08
2018-09-29T01:20:16.538Z,16.00
2018-09-29T01:22:44.595Z,12.18
2018-09-29T01:25:12.638Z,13.85
2018-09-29T01:27:40.675Z,10.50
2018-09-29T01:30:08.718Z,10.55
2018-09-29T01:32:36.789Z,13.30
2018-09-29T01:35:05.162Z,13.18
2018-09-29T01:37:33.293Z,11.05
2018-09-29T01:40:01.344Z,11.05
2018-09-29T01:42:29.407Z,12.00
2018-09-29T01:44:57.462Z,7.90
2018-09-29T01:47:25.558Z,14.38
2018-09-29T01:49:53.629Z,15.20
2018-09-29T01:52:21.704Z,11.65
2018-09-29T01:54:49.757Z,12.90
2018-09-29T01:57:17.838Z,12.95
2018-09-29T01:59:45.905Z,13.38
2018-09-29T02:02:13.966Z,12.60
2018-09-29T02:04:42.018Z,12.37
2018-09-29T02:07:10.082Z,9.10
2018-09-29T02:09:38.144Z,10.85
2018-09-29T02:12:06.225Z,9.93
2018-09-29T02:14:34.278Z,16.50
2018-09-29T02:17:02.355Z,11.63
2018-09-29T02:19:30.401Z,12.55
2018-09-29T02:21:58.469Z,13.80
2018-09-29T02:24:26.533Z,11.03
2018-09-29T02:26:54.622Z,14.43
2018-09-29T02:29:22.677Z,12.80
2018-09-29T02:31:50.733Z,11.93
2018-09-29T02:34:19.254Z,14.30
2018-09-29T02:36:47.299Z,12.35
2018-09-29T02:39:15.374Z,11.88
2018-09-29T02:41:43.430Z,11.75
2018-09-29T02:44:11.509Z,13.43
2018-09-29T02:46:39.545Z,10.85
2018-09-29T02:49:07.640Z,10.20
2018-09-29T02:51:35.716Z,10.18
2018-09-29T02:54:03.789Z,11.08
2018-09-29T02:56:31.838Z,13.10
2018-09-29T02:58:59.902Z,12.50
2018-09-29T03:01:27.949Z,10.88
2018-09-29T03:03:56.009Z,11.50
2018-09-29T03:06:24.053Z,13.65
2018-09-29T03:08:52.110Z,9.23
2018-09-29T03:11:20.143Z,9.30
2018-09-29T03:13:48.254Z,11.22
2018-09-29T03:16:16.295Z,11.03
2018-09-29T03:18:44.351Z,11.12
2018-09-29T03:21:12.394Z,10.05
2018-09-29T03:23:40.466Z,10.82
2018-09-29T03:26:08.513Z,11.05
2018-09-29T03:28:36.576Z,10.30
2018-09-29T03:31:04.628Z,10.53
2018-09-29T03:33:33.353Z,11.95
2018-09-29T03:36:01.406Z,12.63
2018-09-29T03:38:29.437Z,15.53
2018-09-29T03:40:57.490Z,8.43
2018-09-29T03:43:25.562Z,12.13
2018-09-29T03:45:53.618Z,12.93
2018-09-29T03:48:21.660Z,12.53
2018-09-29T03:50:49.746Z,11.83
2018-09-29T03:53:18.059Z,10.00
2018-09-29T03:55:46.077Z,8.48
2018-09-29T03:58:15.169Z,12.60
2018-09-29T04:00:43.213Z,13.53
2018-09-29T04:03:11.257Z,13.25
2018-09-29T04:05:39.309Z,9.30
2018-09-29T04:08:07.434Z,14.00
2018-09-29T04:10:35.638Z,11.57
2018-09-29T04:13:03.681Z,11.50
2018-09-29T04:15:31.722Z,9.30
2018-09-29T04:17:59.755Z,8.50
2018-09-29T04:20:27.803Z,10.50
2018-09-29T04:22:55.842Z,13.03
2018-09-29T04:25:23.918Z,11.55
2018-09-29T04:27:51.962Z,9.70
2018-09-29T04:30:20.008Z,9.83
2018-09-29T04:32:48.058Z,9.18
2018-09-29T04:35:16.101Z,9.93
2018-09-29T04:37:44.149Z,11.95
2018-09-29T04:40:12.202Z,11.33
2018-09-29T04:42:40.241Z,9.58
2018-09-29T04:45:08.301Z,12.75
2018-09-29T04:47:36.355Z,10.38
2018-09-29T04:50:04.478Z,10.55
2018-09-29T04:52:32.509Z,7.92
2018-09-29T04:55:00.573Z,10.98
2018-09-29T04:57:28.621Z,12.07
2018-09-29T04:59:56.669Z,10.63
2018-09-29T05:02:24.722Z,8.53
2018-09-29T05:04:52.756Z,11.40
2018-09-29T05:07:20.808Z,9.37
2018-09-29T05:09:48.917Z,7.75
2018-09-29T05:12:16.987Z,10.17
2018-09-29T05:14:45.044Z,9.45
2018-09-29T05:17:13.068Z,10.53
2018-09-29T05:19:41.126Z,8.08
2018-09-29T05:22:09.153Z,8.97
2018-09-29T05:24:37.274Z,10.38
2018-09-29T05:27:05.306Z,9.50
2018-09-29T05:29:33.352Z,10.20
2018-09-29T05:32:01.378Z,9.53
2018-09-29T05:34:29.426Z,11.22
2018-09-29T05:36:57.481Z,6.53
2018-09-29T05:39:25.553Z,9.28
2018-09-29T05:41:53.585Z,8.05
2018-09-29T05:44:21.620Z,8.13
2018-09-29T05:46:49.685Z,10.53
2018-09-29T05:49:17.746Z,7.75
2018-09-29T05:51:46.328Z,9.15
2018-09-29T05:54:14.377Z,7.72
2018-09-29T05:56:42.425Z,9.93
2018-09-29T05:59:10.467Z,9.05
2018-09-29T06:01:38.494Z,6.70
2018-09-29T06:04:06.743Z,10.25
2018-09-29T06:06:34.807Z,10.77
2018-09-29T06:09:05.285Z,9.48
2018-09-29T06:11:33.346Z,7.95
2018-09-29T06:14:01.389Z,10.38
2018-09-29T06:16:29.430Z,8.83
2018-09-29T06:18:57.507Z,7.87
2018-09-29T06:21:25.553Z,7.83
2018-09-29T06:23:53.617Z,9.08
2018-09-29T06:26:21.693Z,10.40
2018-09-29T06:28:49.756Z,8.88
2018-09-29T06:31:17.817Z,7.30
2018-09-29T06:33:45.861Z,12.30
2018-09-29T06:36:13.904Z,8.73
2018-09-29T06:38:41.969Z,10.30
2018-09-29T06:41:09.986Z,8.08
2018-09-29T06:43:38.042Z,11.38
2018-09-29T06:46:06.297Z,9.55
2018-09-29T06:48:34.330Z,10.82
2018-09-29T06:51:02.410Z,8.33
2018-09-29T06:53:30.453Z,11.17
2018-09-29T06:55:58.493Z,11.25
2018-09-29T06:58:26.513Z,7.47
2018-09-29T07:00:54.558Z,8.25
2018-09-29T07:03:22.610Z,9.03
2018-09-29T07:05:50.665Z,7.40
2018-09-29T07:08:18.716Z,8.85
2018-09-29T07:10:46.754Z,9.40
2018-09-29T07:13:15.451Z,8.20
2018-09-29T07:15:43.503Z,7.97
2018-09-29T07:18:11.569Z,6.58
2018-09-29T07:20:39.610Z,9.45
2018-09-29T07:23:07.666Z,9.08
2018-09-29T07:25:35.770Z,8.35
2018-09-29T07:28:03.865Z,10.78
2018-09-29T07:30:31.926Z,8.18
2018-09-29T07:32:59.958Z,9.53
2018-09-29T07:35:28.196Z,7.22
2018-09-29T07:37:56.266Z,7.03
2018-09-29T07:40:24.337Z,9.23
2018-09-29T07:42:52.398Z,6.70
2018-09-29T07:45:20.433Z,7.00
2018-09-29T07:47:48.496Z,7.40
2018-09-29T07:50:17.202Z,9.40
2018-09-29T07:52:45.246Z,6.83
2018-09-29T07:55:13.691Z,9.23
2018-09-29T07:57:41.956Z,9.13
2018-09-29T08:00:09.993Z,7.80
2018-09-29T08:02:38.073Z,7.83
2018-09-29T08:05:06.163Z,7.50
2018-09-29T08:07:34.217Z,7.27
2018-09-29T08:10:02.262Z,7.05
2018-09-29T08:12:30.378Z,9.78
2018-09-29T08:14:58.381Z,9.98
2018-09-29T08:17:26.449Z,7.03
2018-09-29T08:19:54.486Z,6.10
2018-09-29T08:22:22.517Z,8.68
2018-09-29T08:24:50.581Z,8.98
2018-09-29T08:27:18.637Z,7.20
2018-09-29T08:29:46.681Z,8.15
2018-09-29T08:32:15.043Z,7.12
2018-09-29T08:34:43.029Z,5.12
2018-09-29T08:37:11.124Z,6.87
2018-09-29T08:39:39.160Z,7.87
2018-09-29T08:42:07.202Z,6.10
2018-09-29T08:44:35.262Z,7.47
2018-09-29T08:47:03.325Z,6.93
2018-09-29T08:49:31.373Z,9.08
2018-09-29T08:51:59.433Z,7.75
2018-09-29T08:54:27.485Z,6.83
2018-09-29T08:56:55.533Z,6.97
2018-09-29T08:59:23.582Z,7.47
2018-09-29T09:01:51.637Z,7.00
2018-09-29T09:04:19.665Z,5.67
2018-09-29T09:06:47.728Z,6.67
2018-09-29T09:09:15.815Z,6.60
2018-09-29T09:11:43.813Z,5.17
2018-09-29T09:14:11.879Z,8.38
2018-09-29T09:16:39.950Z,9.03
2018-09-29T09:19:07.969Z,5.58
2018-09-29T09:21:36.075Z,4.78
2018-09-29T09:24:04.175Z,6.80
2018-09-29T09:26:32.190Z,8.10
2018-09-29T09:29:00.232Z,6.78
2018-09-29T09:31:28.321Z,3.27
2018-09-29T09:33:56.387Z,4.80
2018-09-29T09:36:24.425Z,9.38
2018-09-29T09:38:52.494Z,6.45
2018-09-29T09:41:20.574Z,7.58
2018-09-29T09:43:48.641Z,6.70
2018-09-29T09:46:16.717Z,4.75
2018-09-29T09:48:44.806Z,5.95
2018-09-29T09:51:12.974Z,8.08
2018-09-29T09:53:41.036Z,7.47
2018-09-29T09:56:09.147Z,6.22
2018-09-29T09:58:37.809Z,5.97
2018-09-29T10:01:11.262Z,5.13
2018-09-29T10:03:39.326Z,7.10
2018-09-29T10:06:07.406Z,7.90
2018-09-29T10:08:35.479Z,7.15
2018-09-29T10:11:03.545Z,6.90
2018-09-29T10:13:31.633Z,9.47
2018-09-29T10:15:59.687Z,5.45
2018-09-29T10:18:27.749Z,8.83
2018-09-29T10:20:55.834Z,6.50
2018-09-29T10:23:23.894Z,9.20
2018-09-29T10:25:51.965Z,6.00
2018-09-29T10:28:21.029Z,6.30
2018-09-29T10:30:49.119Z,8.65
2018-09-29T10:33:17.210Z,6.50
2018-09-29T10:35:45.244Z,4.80
2018-09-29T10:38:13.290Z,5.25
2018-09-29T10:40:41.314Z,5.90
2018-09-29T10:43:09.386Z,4.97
2018-09-29T10:45:37.429Z,5.17
2018-09-29T10:48:05.477Z,4.20
2018-09-29T10:50:33.509Z,5.62
2018-09-29T10:53:01.629Z,5.30
2018-09-29T10:55:29.621Z,7.03
2018-09-29T10:57:57.654Z,3.77
2018-09-29T11:00:25.697Z,6.55
2018-09-29T11:02:53.765Z,7.08
2018-09-29T11:05:21.806Z,6.63
2018-09-29T11:07:49.849Z,5.65
2018-09-29T11:10:17.904Z,4.17
2018-09-29T11:12:45.961Z,6.58
2018-09-29T11:15:14.009Z,6.12
2018-09-29T11:17:42.069Z,6.03
2018-09-29T11:20:10.130Z,5.65
2018-09-29T11:22:38.189Z,7.23
2018-09-29T11:25:06.281Z,7.17
2018-09-29T11:27:34.347Z,5.55
2018-09-29T11:30:02.405Z,6.00
2018-09-29T11:32:30.438Z,6.17
2018-09-29T11:34:58.529Z,5.90
2018-09-29T11:37:26.568Z,4.15
2018-09-29T11:39:54.618Z,6.12
2018-09-29T11:42:22.635Z,6.22
2018-09-29T11:44:50.771Z,5.75
2018-09-29T11:47:18.725Z,4.67
2018-09-29T11:49:46.769Z,6.28
2018-09-29T11:52:14.818Z,5.58
2018-09-29T11:54:42.917Z,7.40
2018-09-29T11:57:10.962Z,5.90
2018-09-29T11:59:38.989Z,5.97
2018-09-29T12:02:07.107Z,4.85
2018-09-29T12:04:35.175Z,5.40
2018-09-29T12:07:03.258Z,3.83
2018-09-29T12:09:31.305Z,6.92
2018-09-29T12:11:59.345Z,3.60
2018-09-29T12:14:27.393Z,7.00
2018-09-29T12:16:55.451Z,4.28
2018-09-29T12:19:23.569Z,5.85
2018-09-29T12:21:51.609Z,5.28
2018-09-29T12:24:19.658Z,5.93
2018-09-29T12:26:47.681Z,4.60
2018-09-29T12:29:15.798Z,6.72
2018-09-29T12:31:43.818Z,5.05
2018-09-29T12:34:11.877Z,7.13
2018-09-29T12:36:39.935Z,6.62
2018-09-29T12:39:08.862Z,7.70
2018-09-29T12:41:37.119Z,6.17
2018-09-29T12:44:05.182Z,5.20
2018-09-29T12:46:33.230Z,4.42
2018-09-29T12:49:01.340Z,4.50
2018-09-29T12:51:29.481Z,6.17
2018-09-29T12:53:57.585Z,5.62
2018-09-29T12:56:26.059Z,8.03
2018-09-29T12:58:54.164Z,6.30
2018-09-29T13:01:22.193Z,5.70
2018-09-29T13:03:50.287Z,5.75
2018-09-29T13:06:18.339Z,9.63
2018-09-29T13:08:46.421Z,9.18
2018-09-29T13:11:14.501Z,3.62
2018-09-29T13:13:42.561Z,5.53
2018-09-29T13:16:10.942Z,7.73
2018-09-29T13:18:39.009Z,4.72
2018-09-29T13:21:07.101Z,4.10
2018-09-29T13:23:35.173Z,4.15
2018-09-29T13:26:03.253Z,4.33
2018-09-29T13:28:31.314Z,4.42
2018-09-29T13:30:59.398Z,6.30
2018-09-29T13:33:27.451Z,4.90
2018-09-29T13:35:55.541Z,8.83
2018-09-29T13:38:23.768Z,4.80
2018-09-29T13:40:51.817Z,4.50
2018-09-29T13:43:19.903Z,5.60
2018-09-29T13:45:48.003Z,5.65
2018-09-29T13:48:16.025Z,4.22
2018-09-29T13:50:44.094Z,4.30
2018-09-29T13:53:12.152Z,3.37
2018-09-29T13:55:40.246Z,4.93
2018-09-29T13:58:08.306Z,3.12
2018-09-29T14:00:36.364Z,3.42
2018-09-29T14:03:04.405Z,4.67
2018-09-29T14:05:32.466Z,4.53
2018-09-29T14:08:00.516Z,4.90
2018-09-29T14:10:28.585Z,7.33
2018-09-29T14:12:56.625Z,5.25
2018-09-29T14:15:24.736Z,7.35
2018-09-29T14:17:52.805Z,4.90
2018-09-29T14:20:20.873Z,3.15
2018-09-29T14:22:48.944Z,5.17
2018-09-29T14:25:16.997Z,4.33
2018-09-29T14:27:45.098Z,3.80
2018-09-29T14:30:13.284Z,7.30
2018-09-29T14:32:41.330Z,5.85
2018-09-29T14:35:09.500Z,4.60
2018-09-29T14:37:37.539Z,5.20
2018-09-29T14:40:05.927Z,5.85
2018-09-29T14:42:34.001Z,3.95
2018-09-29T14:45:02.142Z,4.80
2018-09-29T14:47:30.170Z,3.90
2018-09-29T14:49:58.224Z,5.87
2018-09-29T14:52:26.405Z,4.60
2018-09-29T14:54:54.393Z,6.70
2018-09-29T14:57:22.458Z,4.72
2018-09-29T14:59:50.517Z,3.22
2018-09-29T15:02:18.594Z,5.17
2018-09-29T15:04:46.646Z,5.50
2018-09-29T15:07:14.722Z,9.23
2018-09-29T15:09:42.789Z,4.30
2018-09-29T15:12:10.874Z,5.50
2018-09-29T15:14:38.933Z,4.00
2018-09-29T15:17:07.007Z,5.22
2018-09-29T15:19:35.067Z,4.28
2018-09-29T15:22:03.125Z,7.00
2018-09-29T15:24:31.178Z,5.35
2018-09-29T15:26:59.234Z,5.50
2018-09-29T15:29:27.303Z,5.50
2018-09-29T15:31:55.383Z,5.10
2018-09-29T15:34:23.441Z,4.08
2018-09-29T15:36:51.531Z,4.72
2018-09-29T15:39:19.586Z,6.30
2018-09-29T15:41:47.657Z,4.70
2018-09-29T15:45:44.973Z,6.75
2018-09-29T15:48:13.070Z,5.50
2018-09-29T15:50:41.129Z,7.35
2018-09-29T15:53:09.197Z,5.53
2018-09-29T15:55:37.322Z,7.25
2018-09-29T15:58:05.330Z,4.55
2018-09-29T16:00:33.405Z,4.80
2018-09-29T16:03:01.470Z,5.45
2018-09-29T16:05:29.521Z,6.53
2018-09-29T16:07:57.598Z,6.47
2018-09-29T16:10:25.635Z,4.83
2018-09-29T16:12:53.705Z,5.75
2018-09-29T16:15:21.786Z,4.33
2018-09-29T16:17:49.826Z,6.58
2018-09-29T16:20:17.898Z,5.20
2018-09-29T16:22:45.948Z,6.28
2018-09-29T16:25:14.026Z,5.00
2018-09-29T16:27:42.078Z,4.85
2018-09-29T16:30:10.158Z,6.80
2018-09-29T16:32:38.236Z,7.17
2018-09-29T16:35:06.315Z,5.37
2018-09-29T16:37:34.362Z,5.20
2018-09-29T16:40:02.411Z,8.00
2018-09-29T16:42:30.454Z,4.00
2018-09-29T16:44:58.493Z,6.95
2018-09-29T16:47:26.545Z,5.20
2018-09-29T16:49:54.593Z,5.30
2018-09-29T16:52:22.654Z,4.72
2018-09-29T16:54:50.685Z,6.65
2018-09-29T16:57:18.790Z,6.67
2018-09-29T16:59:46.798Z,6.47
2018-09-29T17:02:14.899Z,8.05
2018-09-29T17:04:43.053Z,5.40
2018-09-29T17:07:10.998Z,7.70
2018-09-29T17:09:39.054Z,7.03
2018-09-29T17:12:07.096Z,9.55
2018-09-29T17:14:35.141Z,5.62
2018-09-29T17:17:03.226Z,7.25
2018-09-29T17:19:31.441Z,6.77
2018-09-29T17:21:59.590Z,9.90
2018-09-29T17:24:27.557Z,8.48
2018-09-29T17:26:55.631Z,9.50
2018-09-29T17:29:23.660Z,7.70
2018-09-29T17:31:51.771Z,8.98
2018-09-29T17:34:19.773Z,9.85
2018-09-29T17:36:47.833Z,13.60
2018-09-29T17:39:15.897Z,9.60
2018-09-29T17:41:43.988Z,10.13
2018-09-29T17:44:12.045Z,8.63
2018-09-29T17:46:40.126Z,8.33
2018-09-29T17:49:08.261Z,8.60
2018-09-29T17:51:36.338Z,11.05
2018-09-29T17:54:04.408Z,8.20
2018-09-29T17:56:32.480Z,9.85
2018-09-29T17:59:00.870Z,7.83
2018-09-29T18:01:28.997Z,13.55
2018-09-29T18:03:57.106Z,11.03
2018-09-29T18:06:25.146Z,14.60
2018-09-29T18:08:53.225Z,18.35
2018-09-29T18:11:21.309Z,19.20
2018-09-29T18:13:49.365Z,13.98
2018-09-29T18:16:17.433Z,10.13
2018-09-29T18:18:45.497Z,9.20
2018-09-29T18:21:13.573Z,14.50
2018-09-29T18:23:41.653Z,14.63
2018-09-29T18:26:09.705Z,16.20
2018-09-29T18:28:37.781Z,16.15
2018-09-29T18:31:06.155Z,18.65
2018-09-29T18:33:34.225Z,24.92
2018-09-29T18:36:02.404Z,27.93
2018-09-29T18:38:30.393Z,15.65
2018-09-29T18:40:58.441Z,16.50
2018-09-29T18:43:26.512Z,16.40
2018-09-29T18:45:54.558Z,15.55
2018-09-29T18:48:22.617Z,16.17
2018-09-29T18:50:50.696Z,15.60
2018-09-29T18:53:18.762Z,28.52
2018-09-29T18:55:46.797Z,21.40
2018-09-29T18:58:14.845Z,21.57
2018-09-29T19:00:42.894Z,12.18
2018-09-29T19:03:10.979Z,17.65
2018-09-29T19:05:39.009Z,13.22
2018-09-29T19:08:07.083Z,9.83
2018-09-29T19:10:35.125Z,12.93
2018-09-29T19:13:03.182Z,9.55
2018-09-29T19:15:31.242Z,11.60
2018-09-29T19:17:59.318Z,12.73
2018-09-29T19:20:27.390Z,12.60
2018-09-29T19:22:55.447Z,15.53
2018-09-29T19:25:23.493Z,16.93
2018-09-29T19:27:51.544Z,19.10
2018-09-29T19:30:19.659Z,17.15
2018-09-29T19:32:47.694Z,14.93
2018-09-29T19:35:15.753Z,17.95
2018-09-29T19:37:43.845Z,14.60
2018-09-29T19:40:11.915Z,13.10
2018-09-29T19:42:40.070Z,10.82
2018-09-29T19:45:08.162Z,11.90
2018-09-29T19:47:36.206Z,12.00
2018-09-29T19:50:04.343Z,14.68
2018-09-29T19:52:32.414Z,11.70
2018-09-29T19:55:00.553Z,12.20
2018-09-29T19:57:28.611Z,14.13
2018-09-29T19:59:56.681Z,15.35
2018-09-29T20:02:24.749Z,14.83
2018-09-29T20:04:52.857Z,14.20
2018-09-29T20:07:20.945Z,14.73
2018-09-29T20:09:48.996Z,13.45
2018-09-29T20:12:17.084Z,14.18
2018-09-29T20:14:45.161Z,16.00
2018-09-29T20:17:13.232Z,12.95
2018-09-29T20:19:41.326Z,10.63
2018-09-29T20:22:10.058Z,12.03
2018-09-29T20:24:38.142Z,17.50
2018-09-29T20:27:06.707Z,15.45
2018-09-29T20:29:34.762Z,16.77
2018-09-29T20:32:02.867Z,15.00
2018-09-29T20:34:30.943Z,14.90
2018-09-29T20:36:59.057Z,16.30
2018-09-29T20:39:27.114Z,15.55
2018-09-29T20:41:55.186Z,15.90
2018-09-29T20:44:23.262Z,12.05
2018-09-29T20:46:51.338Z,13.50
2018-09-29T20:49:19.440Z,15.25
2018-09-29T20:51:47.510Z,11.25
2018-09-29T20:54:15.581Z,11.57
2018-09-29T20:56:43.657Z,13.75
2018-09-29T20:59:11.731Z,12.30
2018-09-29T21:01:39.789Z,13.30
2018-09-29T21:04:07.880Z,16.37
2018-09-29T21:06:35.937Z,15.98
2018-09-29T21:09:05.369Z,15.60
2018-09-29T21:11:33.450Z,16.70
2018-09-29T21:14:01.523Z,23.47
2018-09-29T21:16:29.607Z,19.75
2018-09-29T21:18:57.722Z,18.62
2018-09-29T21:21:25.783Z,17.37
2018-09-29T21:23:53.851Z,14.00
2018-09-29T21:26:21.926Z,15.28
2018-09-29T21:28:50.002Z,13.08
2018-09-29T21:31:18.084Z,16.12
2018-09-29T21:33:46.154Z,17.12
2018-09-29T21:36:14.224Z,13.60
2018-09-29T21:38:42.286Z,14.70
2018-09-29T21:41:10.365Z,15.65
2018-09-29T21:43:38.425Z,15.88
2018-09-29T21:46:06.681Z,11.85
2018-09-29T21:48:34.790Z,12.65
2018-09-29T21:51:02.848Z,13.68
2018-09-29T21:53:30.885Z,11.85
2018-09-29T21:55:58.965Z,17.30
2018-09-29T21:58:27.038Z,17.52
2018-09-29T22:00:55.091Z,17.12
2018-09-29T22:03:23.129Z,20.85
2018-09-29T22:05:51.195Z,18.05
2018-09-29T22:08:19.257Z,13.75
2018-09-29T22:10:47.325Z,12.70
2018-09-29T22:13:15.391Z,12.03
2018-09-29T22:15:43.429Z,12.73
2018-09-29T22:18:11.485Z,12.63
2018-09-29T22:20:39.550Z,13.30
2018-09-29T22:23:07.593Z,11.85
2018-09-29T22:25:35.647Z,12.20
2018-09-29T22:28:03.701Z,10.28
2018-09-29T22:30:31.762Z,11.87
2018-09-29T22:32:59.800Z,11.50
2018-09-29T22:35:27.846Z,9.73
2018-09-29T22:37:55.885Z,9.45
2018-09-29T22:40:23.955Z,8.13
2018-09-29T22:42:51.973Z,7.90
2018-09-29T22:45:20.018Z,9.08
2018-09-29T22:47:48.117Z,7.45
2018-09-29T22:50:16.165Z,8.48
2018-09-29T22:52:44.229Z,7.12
2018-09-29T22:55:12.284Z,6.58
2018-09-29T22:57:40.356Z,6.67
2018-09-29T23:00:08.369Z,7.25
2018-09-29T23:02:36.418Z,8.30
2018-09-29T23:05:04.526Z,9.80
2018-09-29T23:07:32.737Z,8.40
2018-09-29T23:10:00.769Z,8.90
2018-09-29T23:12:28.834Z,7.60
2018-09-29T23:14:56.882Z,9.95
2018-09-29T23:17:24.957Z,10.68
2018-09-29T23:19:52.985Z,16.00
2018-09-29T23:22:21.028Z,10.82
2018-09-29T23:24:49.105Z,12.47
2018-09-29T23:27:17.161Z,12.00
2018-09-29T23:29:45.213Z,10.43
2018-09-29T23:32:13.266Z,8.10
2018-09-29T23:34:41.305Z,8.50
2018-09-29T23:37:09.378Z,7.17
2018-09-29T23:39:37.496Z,9.40
2018-09-29T23:42:05.585Z,6.70
2018-09-29T23:44:33.650Z,5.80
2018-09-29T23:47:01.697Z,4.85
2018-09-29T23:49:30.034Z,7.00
2018-09-29T23:51:58.101Z,4.85
2018-09-29T23:54:26.228Z,9.13
2018-09-29T23:56:54.221Z,8.95
2018-09-29T23:59:22.306Z,6.50
